createdAt,value
2018-03-27T00:01:13.261Z,11.57
2018-03-27T00:03:41.699Z,13.38
2018-03-27T00:06:10.115Z,11.03
2018-03-27T00:08:38.434Z,12.07
2018-03-27T00:11:06.718Z,13.87
2018-03-27T00:13:35.192Z,11.70
2018-03-27T00:16:03.507Z,9.80
2018-03-27T00:18:32.243Z,13.30
2018-03-27T00:21:00.504Z,11.70
2018-03-27T00:23:28.801Z,9.60
2018-03-27T00:25:57.084Z,11.57
2018-03-27T00:28:43.726Z,8.87
2018-03-27T00:31:30.141Z,10.97
2018-03-27T00:34:17.223Z,14.23
2018-03-27T00:37:04.563Z,9.80
2018-03-27T00:39:50.898Z,12.90
2018-03-27T00:42:43.324Z,12.23
2018-03-27T00:45:11.856Z,10.50
2018-03-27T00:47:40.208Z,13.47
2018-03-27T00:50:08.578Z,13.52
2018-03-27T00:52:37.383Z,12.60
2018-03-27T00:55:05.738Z,13.90
2018-03-27T00:57:34.817Z,15.10
2018-03-27T01:00:03.159Z,16.37
2018-03-27T01:02:31.470Z,16.83
2018-03-27T01:05:05.334Z,14.80
2018-03-27T01:07:33.814Z,13.88
2018-03-27T01:10:02.109Z,16.70
2018-03-27T01:12:30.804Z,16.65
2018-03-27T01:14:59.397Z,15.77
2018-03-27T01:17:27.816Z,10.80
2018-03-27T01:19:56.192Z,9.87
2018-03-27T01:22:24.667Z,11.80
2018-03-27T01:24:53.904Z,15.27
2018-03-27T01:27:22.278Z,12.53
2018-03-27T01:29:50.748Z,13.93
2018-03-27T01:32:19.187Z,13.00
2018-03-27T01:34:48.374Z,15.03
2018-03-27T01:37:16.708Z,14.53
2018-03-27T01:39:45.002Z,18.97
2018-03-27T01:42:14.367Z,18.97
2018-03-27T01:44:42.814Z,17.93
2018-03-27T01:47:11.248Z,17.17
2018-03-27T01:49:40.665Z,21.37
2018-03-27T01:52:09.141Z,16.77
2018-03-27T01:54:37.417Z,21.65
2018-03-27T01:57:05.762Z,17.30
2018-03-27T01:59:34.114Z,21.35
2018-03-27T02:02:03.166Z,24.03
2018-03-27T02:04:31.462Z,21.20
2018-03-27T02:06:59.746Z,27.03
2018-03-27T02:09:28.157Z,23.03
2018-03-27T02:12:02.100Z,25.53
2018-03-27T02:14:36.130Z,26.53
2018-03-27T02:17:09.884Z,20.63
2018-03-27T02:19:43.693Z,22.20
2018-03-27T02:22:12.099Z,23.83
2018-03-27T02:24:40.488Z,23.90
2018-03-27T02:27:08.932Z,26.03
2018-03-27T02:29:37.239Z,25.27
2018-03-27T02:32:05.543Z,19.57
2018-03-27T02:34:33.877Z,26.90
2018-03-27T02:37:02.328Z,25.93
2018-03-27T02:39:31.608Z,24.57
2018-03-27T02:42:00.022Z,27.70
2018-03-27T02:44:28.359Z,31.03
2018-03-27T02:46:56.688Z,29.57
2018-03-27T02:49:25.110Z,27.85
2018-03-27T02:51:53.445Z,31.10
2018-03-27T02:54:22.005Z,27.57
2018-03-27T02:56:50.548Z,31.17
2018-03-27T02:59:18.869Z,29.93
2018-03-27T03:01:47.233Z,29.10
2018-03-27T03:04:17.510Z,32.37
2018-03-27T03:06:45.899Z,32.30
2018-03-27T03:09:14.332Z,33.85
2018-03-27T03:11:42.859Z,35.03
2018-03-27T03:14:11.304Z,33.28
2018-03-27T03:16:39.619Z,28.83
2018-03-27T03:19:07.928Z,30.70
2018-03-27T03:21:37.017Z,33.10
2018-03-27T03:24:06.164Z,33.22
2018-03-27T03:26:34.824Z,33.17
2018-03-27T03:29:03.763Z,29.17
2018-03-27T03:31:32.083Z,29.83
2018-03-27T03:34:01.172Z,32.97
2018-03-27T03:36:31.272Z,35.65
2018-03-27T03:38:59.682Z,32.77
2018-03-27T03:41:27.944Z,34.77
2018-03-27T03:43:57.171Z,29.47
2018-03-27T03:46:25.452Z,42.53
2018-03-27T03:48:53.769Z,34.25
2018-03-27T03:51:22.083Z,35.63
2018-03-27T03:53:50.620Z,27.57
2018-03-27T03:56:19.253Z,48.47
2018-03-27T03:58:47.557Z,36.13
2018-03-27T04:01:15.863Z,40.40
2018-03-27T04:03:44.145Z,36.10
2018-03-27T04:06:13.578Z,29.33
2018-03-27T04:08:42.590Z,32.73
2018-03-27T04:11:10.878Z,37.33
2018-03-27T04:13:39.163Z,39.40
2018-03-27T04:16:07.509Z,40.70
2018-03-27T04:18:35.962Z,45.03
2018-03-27T04:21:05.008Z,47.43
2018-03-27T04:23:33.393Z,52.37
2018-03-27T04:26:01.863Z,53.30
2018-03-27T04:28:30.339Z,48.77
2018-03-27T04:30:58.697Z,48.96
2018-03-27T04:33:27.135Z,57.03
2018-03-27T04:35:56.681Z,56.55
2018-03-27T04:38:25.288Z,55.60
2018-03-27T04:40:53.754Z,55.30
2018-03-27T04:43:22.334Z,52.23
2018-03-27T04:45:50.834Z,59.23
2018-03-27T04:48:19.242Z,60.43
2018-03-27T04:50:47.654Z,52.27
2018-03-27T04:53:16.724Z,54.93
2018-03-27T04:55:45.139Z,60.58
2018-03-27T04:58:13.643Z,67.17
2018-03-27T05:00:41.966Z,60.90
2018-03-27T05:03:10.568Z,48.93
2018-03-27T05:05:39.818Z,65.72
2018-03-27T05:08:09.969Z,55.65
2018-03-27T05:10:38.326Z,62.50
2018-03-27T05:13:06.615Z,65.95
2018-03-27T05:15:34.894Z,62.70
2018-03-27T05:18:04.245Z,68.17
2018-03-27T05:20:32.615Z,48.13
2018-03-27T05:23:01.170Z,49.27
2018-03-27T05:25:29.576Z,51.10
2018-03-27T05:27:57.923Z,39.67
2018-03-27T05:30:26.189Z,47.27
2018-03-27T05:32:54.514Z,54.75
2018-03-27T05:35:23.650Z,52.13
2018-03-27T05:37:52.171Z,39.17
2018-03-27T05:40:21.197Z,47.20
2018-03-27T05:42:49.613Z,40.83
2018-03-27T05:45:17.949Z,47.10
2018-03-27T05:47:46.422Z,51.60
2018-03-27T05:50:15.118Z,47.78
2018-03-27T05:52:43.404Z,60.00
2018-03-27T05:55:11.818Z,52.37
2018-03-27T05:57:41.025Z,50.43
2018-03-27T06:00:09.352Z,44.17
2018-03-27T06:02:37.798Z,50.27
2018-03-27T06:05:06.906Z,51.03
2018-03-27T06:07:35.359Z,47.40
2018-03-27T06:10:05.854Z,45.30
2018-03-27T06:12:34.325Z,48.00
2018-03-27T06:15:02.618Z,40.60
2018-03-27T06:17:31.019Z,38.93
2018-03-27T06:19:59.413Z,54.17
2018-03-27T06:22:28.460Z,48.65
2018-03-27T06:24:56.945Z,41.93
2018-03-27T06:27:25.452Z,47.17
2018-03-27T06:29:53.934Z,53.03
2018-03-27T06:32:22.417Z,53.27
2018-03-27T06:34:50.813Z,59.97
2018-03-27T06:37:19.218Z,66.47
2018-03-27T06:39:47.680Z,68.73
2018-03-27T06:42:16.231Z,68.53
2018-03-27T06:44:44.825Z,70.27
2018-03-27T06:47:14.035Z,77.17
2018-03-27T06:49:43.113Z,74.22
2018-03-27T06:52:12.155Z,78.33
2018-03-27T06:54:40.463Z,63.50
2018-03-27T06:57:08.861Z,65.33
2018-03-27T06:59:37.328Z,71.73
2018-03-27T07:02:06.010Z,61.78
2018-03-27T07:04:35.841Z,64.87
2018-03-27T07:07:04.396Z,62.07
2018-03-27T07:09:32.813Z,54.30
2018-03-27T07:12:01.245Z,60.33
2018-03-27T07:14:29.655Z,52.20
2018-03-27T07:16:58.204Z,59.73
2018-03-27T07:19:26.514Z,50.87
2018-03-27T07:21:55.814Z,55.27
2018-03-27T07:24:24.221Z,51.17
2018-03-27T07:26:52.535Z,53.97
2018-03-27T07:29:20.895Z,44.10
2018-03-27T07:31:49.243Z,59.33
2018-03-27T07:34:18.432Z,55.67
2018-03-27T07:36:47.698Z,50.47
2018-03-27T07:39:16.327Z,44.67
2018-03-27T07:41:44.673Z,49.53
2018-03-27T07:44:14.273Z,48.15
2018-03-27T07:46:42.717Z,51.53
2018-03-27T07:49:11.239Z,43.13
2018-03-27T07:51:39.564Z,40.63
2018-03-27T07:54:07.891Z,36.83
2018-03-27T07:56:36.336Z,41.90
2018-03-27T07:59:04.724Z,34.35
2018-03-27T08:01:33.190Z,40.23
2018-03-27T08:04:01.816Z,43.55
2018-03-27T08:06:30.204Z,37.20
2018-03-27T08:08:58.526Z,36.67
2018-03-27T08:11:26.919Z,27.67
2018-03-27T08:13:56.156Z,33.30
2018-03-27T08:16:24.628Z,34.97
2018-03-27T08:18:53.124Z,35.93
2018-03-27T08:21:21.530Z,35.43
2018-03-27T08:23:49.851Z,32.17
2018-03-27T08:26:18.169Z,27.40
2018-03-27T08:28:47.250Z,28.43
2018-03-27T08:31:15.648Z,23.63
2018-03-27T08:33:44.735Z,27.70
2018-03-27T08:36:13.924Z,26.95
2018-03-27T08:38:42.204Z,23.42
2018-03-27T08:41:11.362Z,24.87
2018-03-27T08:43:39.673Z,21.80
2018-03-27T08:46:08.058Z,21.67
2018-03-27T08:48:37.321Z,42.67
2018-03-27T08:51:05.613Z,24.63
2018-03-27T08:53:34.131Z,19.13
2018-03-27T08:56:03.229Z,25.80
2018-03-27T08:58:32.281Z,20.60
2018-03-27T09:01:02.074Z,22.50
2018-03-27T09:03:30.396Z,16.42
2018-03-27T09:05:59.546Z,16.37
2018-03-27T09:08:27.991Z,13.55
2018-03-27T09:10:56.312Z,15.75
2018-03-27T09:13:24.669Z,17.60
2018-03-27T09:15:54.110Z,11.60
2018-03-27T09:18:22.759Z,12.07
2018-03-27T09:20:51.351Z,10.77
2018-03-27T09:23:19.789Z,12.53
2018-03-27T09:25:48.545Z,9.50
2018-03-27T09:28:16.984Z,11.13
2018-03-27T09:30:45.336Z,7.10
2018-03-27T09:33:13.832Z,9.70
2018-03-27T09:35:42.425Z,10.45
2018-03-27T09:38:10.790Z,12.07
2018-03-27T09:40:39.150Z,13.97
2018-03-27T09:43:08.394Z,9.80
2018-03-27T09:45:38.001Z,8.00
2018-03-27T09:48:06.554Z,7.70
2018-03-27T09:50:34.897Z,9.00
2018-03-27T09:53:04.125Z,6.30
2018-03-27T09:55:32.583Z,10.57
2018-03-27T09:58:01.713Z,10.17
2018-03-27T10:00:35.526Z,8.27
2018-03-27T10:03:03.841Z,10.47
2018-03-27T10:05:33.022Z,9.13
2018-03-27T10:08:01.576Z,9.68
2018-03-27T10:10:30.286Z,13.77
2018-03-27T10:12:58.607Z,11.10
2018-03-27T10:15:27.191Z,23.07
2018-03-27T10:17:56.488Z,14.27
2018-03-27T10:20:25.588Z,13.03
2018-03-27T10:22:53.881Z,10.93
2018-03-27T10:27:57.038Z,12.03
2018-03-27T10:30:26.426Z,13.93
2018-03-27T10:32:54.728Z,10.87
2018-03-27T10:35:23.023Z,10.63
2018-03-27T10:37:52.228Z,11.50
2018-03-27T10:40:21.302Z,10.77
2018-03-27T10:42:51.427Z,10.27
2018-03-27T10:45:20.563Z,9.93
2018-03-27T10:47:48.883Z,9.17
2018-03-27T10:50:17.316Z,12.37
2018-03-27T10:52:45.734Z,9.07
2018-03-27T10:55:14.163Z,10.52
2018-03-27T10:57:42.751Z,10.38
2018-03-27T11:00:11.115Z,11.67
2018-03-27T11:02:40.387Z,11.30
2018-03-27T11:05:08.746Z,9.53
2018-03-27T11:07:37.216Z,9.50
2018-03-27T11:10:05.659Z,8.33
2018-03-27T11:12:35.037Z,12.97
2018-03-27T11:15:03.685Z,11.80
2018-03-27T11:17:32.055Z,12.87
2018-03-27T11:20:00.487Z,11.80
2018-03-27T11:22:29.804Z,12.37
2018-03-27T11:24:58.256Z,11.23
2018-03-27T11:27:27.636Z,8.43
2018-03-27T11:29:55.992Z,11.40
2018-03-27T11:32:24.461Z,10.10
2018-03-27T11:34:54.137Z,10.88
2018-03-27T11:37:22.796Z,12.17
2018-03-27T11:39:51.137Z,11.20
2018-03-27T11:42:19.498Z,11.83
2018-03-27T11:44:47.878Z,15.27
2018-03-27T11:47:16.569Z,11.37
2018-03-27T11:49:44.925Z,11.02
2018-03-27T11:52:13.227Z,9.80
2018-03-27T11:54:41.596Z,8.95
2018-03-27T11:57:10.651Z,11.97
2018-03-27T11:59:38.946Z,19.30
2018-03-27T12:02:08.147Z,11.30
2018-03-27T12:04:37.335Z,11.60
2018-03-27T12:07:07.292Z,12.13
2018-03-27T12:09:35.610Z,11.63
2018-03-27T12:12:04.839Z,15.23
2018-03-27T12:14:34.062Z,14.00
2018-03-27T12:17:02.529Z,12.53
2018-03-27T12:19:30.885Z,16.20
2018-03-27T12:21:59.946Z,14.75
2018-03-27T12:24:28.289Z,15.90
2018-03-27T12:26:56.656Z,16.83
2018-03-27T12:29:25.096Z,12.40
2018-03-27T12:31:54.336Z,16.05
2018-03-27T12:34:22.867Z,20.73
2018-03-27T12:36:51.289Z,14.77
2018-03-27T12:39:20.693Z,15.75
2018-03-27T12:41:49.006Z,14.57
2018-03-27T12:44:17.448Z,17.03
2018-03-27T12:46:46.091Z,15.33
2018-03-27T12:49:14.553Z,16.42
2018-03-27T12:51:42.905Z,14.38
2018-03-27T12:54:11.376Z,16.65
2018-03-27T12:56:39.737Z,16.50
2018-03-27T12:59:08.957Z,18.50
2018-03-27T13:01:37.469Z,20.37
2018-03-27T13:04:05.830Z,19.90
2018-03-27T13:06:34.196Z,16.97
2018-03-27T13:09:02.587Z,17.93
2018-03-27T13:11:31.158Z,16.60
2018-03-27T13:13:59.747Z,17.83
2018-03-27T13:16:28.121Z,16.50
2018-03-27T13:18:56.474Z,21.57
2018-03-27T13:21:25.698Z,18.85
2018-03-27T13:23:54.036Z,18.02
2018-03-27T13:26:23.110Z,17.37
2018-03-27T13:28:51.430Z,19.87
2018-03-27T13:31:19.813Z,18.43
2018-03-27T13:33:48.586Z,15.30
2018-03-27T13:36:17.842Z,19.57
2018-03-27T13:38:47.058Z,21.98
2018-03-27T13:41:15.393Z,19.90
2018-03-27T13:43:43.863Z,19.67
2018-03-27T13:46:12.328Z,18.07
2018-03-27T13:48:40.777Z,16.27
2018-03-27T13:51:09.181Z,24.30
2018-03-27T13:53:37.667Z,20.33
2018-03-27T13:56:06.009Z,20.87
2018-03-27T13:58:34.297Z,15.02
2018-03-27T14:01:03.005Z,20.60
2018-03-27T14:03:31.455Z,20.30
2018-03-27T14:05:59.946Z,18.73
2018-03-27T14:08:29.583Z,19.52
2018-03-27T14:10:58.121Z,21.33
2018-03-27T14:13:26.504Z,16.83
2018-03-27T14:15:54.921Z,18.97
2018-03-27T14:18:23.253Z,16.27
2018-03-27T14:20:51.622Z,18.77
2018-03-27T14:23:20.155Z,20.57
2018-03-27T14:25:48.651Z,17.85
2018-03-27T14:28:17.113Z,19.33
2018-03-27T14:30:45.572Z,21.10
2018-03-27T14:33:13.874Z,21.13
2018-03-27T14:35:42.505Z,19.20
2018-03-27T14:38:10.861Z,16.33
2018-03-27T14:40:39.339Z,20.13
2018-03-27T14:43:10.577Z,24.00
2018-03-27T14:45:39.048Z,23.33
2018-03-27T14:48:07.612Z,21.33
2018-03-27T14:50:36.750Z,19.87
2018-03-27T14:53:05.253Z,24.98
2018-03-27T14:55:33.559Z,22.93
2018-03-27T14:58:02.902Z,24.60
2018-03-27T15:00:31.359Z,21.50
2018-03-27T15:02:59.966Z,24.50
2018-03-27T15:05:28.363Z,23.55
2018-03-27T15:07:56.751Z,23.10
2018-03-27T15:10:25.079Z,23.47
2018-03-27T15:12:54.625Z,26.77
2018-03-27T15:15:22.997Z,24.10
2018-03-27T15:17:52.442Z,25.07
2018-03-27T15:20:21.767Z,26.27
2018-03-27T15:22:50.881Z,24.30
2018-03-27T15:25:19.457Z,21.77
2018-03-27T15:27:47.935Z,23.37
2018-03-27T15:30:16.530Z,22.58
2018-03-27T15:32:44.939Z,26.47
2018-03-27T15:35:13.352Z,22.42
2018-03-27T15:37:42.461Z,24.43
2018-03-27T15:40:11.064Z,24.17
2018-03-27T15:42:39.782Z,29.83
2018-03-27T15:45:08.157Z,21.83
2018-03-27T15:47:36.512Z,26.45
2018-03-27T15:50:05.068Z,23.87
2018-03-27T15:52:33.823Z,29.20
2018-03-27T15:55:02.149Z,30.80
2018-03-27T15:57:30.580Z,24.67
2018-03-27T16:00:00.562Z,25.50
2018-03-27T16:02:28.881Z,25.70
2018-03-27T16:04:58.117Z,28.30
2018-03-27T16:07:26.489Z,29.93
2018-03-27T16:09:55.330Z,28.40
2018-03-27T16:12:23.645Z,23.07
2018-03-27T16:14:52.082Z,28.53
2018-03-27T16:17:21.104Z,28.48
2018-03-27T16:19:50.433Z,28.13
2018-03-27T16:22:18.752Z,23.93
2018-03-27T16:24:47.365Z,21.87
2018-03-27T16:27:16.646Z,28.67
2018-03-27T16:29:45.109Z,22.07
2018-03-27T16:32:13.579Z,23.30
2018-03-27T16:34:41.939Z,26.35
2018-03-27T16:37:10.379Z,25.43
2018-03-27T16:39:39.559Z,25.58
2018-03-27T16:42:07.967Z,27.53
2018-03-27T16:44:37.133Z,29.33
2018-03-27T16:47:06.282Z,27.73
2018-03-27T16:49:34.717Z,24.27
2018-03-27T16:52:03.058Z,23.10
2018-03-27T16:54:31.493Z,32.00
2018-03-27T16:57:00.737Z,23.97
2018-03-27T16:59:29.636Z,27.37
2018-03-27T17:01:58.177Z,29.73
2018-03-27T17:04:26.596Z,28.65
2018-03-27T17:06:54.942Z,31.62
2018-03-27T17:09:24.331Z,27.73
2018-03-27T17:11:52.755Z,21.60
2018-03-27T17:14:21.273Z,27.63
2018-03-27T17:16:49.860Z,30.20
2018-03-27T17:19:20.040Z,28.73
2018-03-27T17:21:49.194Z,23.07
2018-03-27T17:24:19.352Z,23.87
2018-03-27T17:26:47.724Z,25.00
2018-03-27T17:29:16.015Z,26.13
2018-03-27T17:31:44.588Z,19.40
2018-03-27T17:34:13.082Z,26.47
2018-03-27T17:36:41.439Z,22.73
2018-03-27T17:39:09.849Z,21.13
2018-03-27T17:41:38.276Z,19.30
2018-03-27T17:44:06.649Z,17.67
2018-03-27T17:46:35.266Z,21.92
2018-03-27T17:49:03.805Z,17.98
2018-03-27T17:51:32.133Z,16.40
2018-03-27T17:54:01.589Z,17.50
2018-03-27T17:56:31.822Z,19.20
2018-03-27T17:59:01.134Z,20.83
2018-03-27T18:01:29.603Z,19.90
2018-03-27T18:03:58.013Z,19.65
2018-03-27T18:06:26.498Z,18.33
2018-03-27T18:08:55.196Z,20.23
2018-03-27T18:11:23.781Z,17.48
2018-03-27T18:13:52.969Z,20.20
2018-03-27T18:16:21.340Z,19.90
2018-03-27T18:18:49.719Z,21.90
2018-03-27T18:21:18.105Z,20.23
2018-03-27T18:23:46.476Z,21.73
2018-03-27T18:26:15.189Z,17.85
2018-03-27T18:28:43.569Z,25.03
2018-03-27T18:31:12.107Z,18.77
2018-03-27T18:33:40.439Z,12.80
2018-03-27T18:36:10.714Z,9.88
2018-03-27T18:38:39.532Z,7.87
2018-03-27T18:41:08.016Z,10.70
2018-03-27T18:43:36.641Z,8.33
2018-03-27T18:46:05.044Z,7.72
2018-03-27T18:48:33.357Z,9.07
2018-03-27T18:51:01.729Z,10.70
2018-03-27T18:53:30.101Z,11.25
2018-03-27T18:55:58.509Z,9.73
2018-03-27T18:58:27.640Z,10.07
2018-03-27T19:00:55.982Z,10.13
2018-03-27T19:03:25.229Z,7.70
2018-03-27T19:05:53.590Z,9.93
2018-03-27T19:08:22.007Z,12.03
2018-03-27T19:10:50.416Z,9.57
2018-03-27T19:13:18.733Z,10.17
2018-03-27T19:15:47.024Z,10.73
2018-03-27T19:18:15.385Z,9.80
2018-03-27T19:20:43.877Z,11.03
2018-03-27T19:23:12.313Z,12.20
2018-03-27T19:25:40.636Z,12.15
2018-03-27T19:28:09.079Z,15.47
2018-03-27T19:30:38.191Z,11.27
2018-03-27T19:33:06.573Z,11.37
2018-03-27T19:35:35.657Z,10.90
2018-03-27T19:38:04.716Z,10.73
2018-03-27T19:40:33.155Z,15.30
2018-03-27T19:43:01.541Z,14.77
2018-03-27T19:45:29.923Z,12.73
2018-03-27T19:47:58.240Z,12.50
2018-03-27T19:50:26.597Z,11.63
2018-03-27T19:52:55.018Z,12.10
2018-03-27T19:55:23.374Z,11.33
2018-03-27T19:57:51.690Z,10.20
2018-03-27T20:00:20.263Z,13.30
2018-03-27T20:02:50.714Z,12.07
2018-03-27T20:05:19.039Z,13.40
2018-03-27T20:07:47.983Z,12.93
2018-03-27T20:10:16.364Z,12.10
2018-03-27T20:12:44.690Z,11.03
2018-03-27T20:15:13.884Z,12.07
2018-03-27T20:17:42.216Z,11.53
2018-03-27T20:20:10.679Z,13.48
2018-03-27T20:22:39.130Z,13.27
2018-03-27T20:25:08.390Z,15.10
2018-03-27T20:27:37.426Z,12.80
2018-03-27T20:30:06.859Z,12.98
2018-03-27T20:32:35.558Z,13.40
2018-03-27T20:35:04.282Z,12.02
2018-03-27T20:37:32.709Z,14.13
2018-03-27T20:40:01.057Z,15.20
2018-03-27T20:42:30.276Z,14.37
2018-03-27T20:44:58.637Z,11.77
2018-03-27T20:47:27.839Z,11.80
2018-03-27T20:49:56.942Z,12.32
2018-03-27T20:52:26.254Z,12.80
2018-03-27T20:54:54.670Z,13.87
2018-03-27T20:57:23.247Z,14.73
2018-03-27T20:59:51.684Z,13.55
2018-03-27T21:02:20.071Z,15.90
2018-03-27T21:04:48.416Z,12.20
2018-03-27T21:07:17.008Z,14.82
2018-03-27T21:09:47.261Z,13.23
2018-03-27T21:12:15.785Z,14.97
2018-03-27T21:14:44.182Z,14.27
2018-03-27T21:17:13.355Z,14.13
2018-03-27T21:19:41.790Z,11.77
2018-03-27T21:22:10.272Z,14.10
2018-03-27T21:24:38.688Z,19.23
2018-03-27T21:27:07.279Z,31.63
2018-03-27T21:29:35.620Z,21.30
2018-03-27T21:32:03.959Z,12.87
2018-03-27T21:34:32.366Z,13.13
2018-03-27T21:37:00.769Z,13.03
2018-03-27T21:39:29.119Z,17.17
2018-03-27T21:41:57.607Z,13.90
2018-03-27T21:44:26.135Z,11.33
2018-03-27T21:46:54.517Z,13.23
2018-03-27T21:49:22.904Z,11.50
2018-03-27T21:51:51.259Z,12.98
2018-03-27T21:54:19.821Z,11.33
2018-03-27T21:56:48.140Z,12.27
2018-03-27T21:59:16.454Z,10.97
2018-03-27T22:01:45.603Z,11.53
2018-03-27T22:04:13.957Z,10.37
2018-03-27T22:06:42.301Z,12.13
2018-03-27T22:09:12.413Z,13.30
2018-03-27T22:11:41.728Z,11.97
2018-03-27T22:14:10.175Z,11.87
2018-03-27T22:16:38.677Z,12.97
2018-03-27T22:19:07.821Z,11.47
2018-03-27T22:21:36.523Z,15.00
2018-03-27T22:24:06.460Z,11.38
2018-03-27T22:26:35.794Z,10.70
2018-03-27T22:29:04.126Z,11.27
2018-03-27T22:31:32.555Z,18.00
2018-03-27T22:34:00.866Z,30.05
2018-03-27T22:36:29.191Z,20.08
2018-03-27T22:38:58.277Z,12.77
2018-03-27T22:41:27.401Z,12.20
2018-03-27T22:43:55.711Z,12.07
2018-03-27T22:46:23.986Z,9.57
2018-03-27T22:48:52.315Z,12.47
2018-03-27T22:51:20.629Z,11.40
2018-03-27T22:53:48.905Z,12.23
2018-03-27T22:56:17.457Z,11.43
2018-03-27T22:58:45.831Z,13.40
2018-03-27T23:01:14.317Z,9.25
2018-03-27T23:03:42.664Z,12.30
2018-03-27T23:06:11.066Z,12.03
2018-03-27T23:08:39.605Z,14.52
2018-03-27T23:11:08.174Z,11.03
2018-03-27T23:13:36.530Z,10.77
2018-03-27T23:16:04.836Z,13.43
2018-03-27T23:18:33.166Z,11.53
2018-03-27T23:21:01.550Z,11.03
2018-03-27T23:23:30.031Z,10.77
2018-03-27T23:25:58.546Z,9.80
2018-03-27T23:28:26.837Z,12.15
2018-03-27T23:30:55.148Z,9.73
2018-03-27T23:33:24.351Z,12.33
2018-03-27T23:35:53.615Z,13.70
2018-03-27T23:38:23.219Z,14.00
2018-03-27T23:40:54.160Z,10.30
2018-03-27T23:43:25.080Z,12.50
2018-03-27T23:45:53.414Z,10.83
2018-03-27T23:48:21.835Z,15.30
2018-03-27T23:50:50.161Z,10.37
2018-03-27T23:53:19.254Z,12.63
2018-03-27T23:55:47.550Z,12.98
2018-03-27T23:58:15.946Z,11.50
